createdAt,value
2018-12-09T00:00:30.218Z,982.31
2018-12-09T00:01:30.189Z,982.58
2018-12-09T00:02:30.158Z,982.54
2018-12-09T00:03:30.134Z,982.56
2018-12-09T00:04:30.095Z,982.38
2018-12-09T00:05:30.067Z,982.61
2018-12-09T00:06:30.047Z,982.14
2018-12-09T00:07:30.007Z,982.26
2018-12-09T00:08:29.980Z,982.63
2018-12-09T00:09:29.948Z,982.61
2018-12-09T00:10:29.917Z,982.53
2018-12-09T00:11:29.885Z,982.51
2018-12-09T00:12:29.855Z,982.65
2018-12-09T00:13:29.826Z,982.37
2018-12-09T00:14:29.795Z,982.12
2018-12-09T00:15:29.769Z,982.51
2018-12-09T00:16:29.735Z,982.68
2018-12-09T00:17:29.704Z,982.59
2018-12-09T00:18:29.678Z,982.49
2018-12-09T00:19:29.644Z,982.61
2018-12-09T00:20:29.621Z,982.53
2018-12-09T00:21:29.585Z,982.43
2018-12-09T00:22:29.555Z,982.47
2018-12-09T00:23:29.525Z,982.41
2018-12-09T00:24:29.494Z,982.35
2018-12-09T00:25:29.463Z,982.46
2018-12-09T00:26:29.434Z,982.42
2018-12-09T00:27:29.403Z,982.53
2018-12-09T00:28:29.373Z,982.38
2018-12-09T00:29:29.344Z,982.39
2018-12-09T00:30:29.317Z,982.35
2018-12-09T00:31:29.284Z,982.31
2018-12-09T00:32:29.255Z,982.12
2018-12-09T00:33:29.229Z,982.30
2018-12-09T00:34:29.192Z,982.27
2018-12-09T00:35:29.163Z,982.32
2018-12-09T00:36:29.138Z,982.31
2018-12-09T00:37:29.103Z,981.84
2018-12-09T00:38:29.073Z,982.28
2018-12-09T00:39:29.062Z,982.35
2018-12-09T00:40:29.011Z,982.22
2018-12-09T00:41:28.982Z,982.26
2018-12-09T00:42:28.959Z,982.30
2018-12-09T00:43:28.923Z,982.15
2018-12-09T00:44:28.898Z,982.28
2018-12-09T00:45:28.863Z,982.11
2018-12-09T00:46:28.831Z,982.12
2018-12-09T00:47:28.800Z,982.11
2018-12-09T00:48:28.769Z,982.22
2018-12-09T00:49:28.740Z,982.05
2018-12-09T00:50:28.716Z,982.13
2018-12-09T00:51:28.681Z,982.15
2018-12-09T00:52:28.650Z,982.19
2018-12-09T00:53:28.619Z,982.10
2018-12-09T00:54:28.590Z,982.13
2018-12-09T00:55:28.559Z,982.06
2018-12-09T00:56:28.529Z,981.80
2018-12-09T00:57:28.499Z,982.11
2018-12-09T00:58:28.468Z,981.93
2018-12-09T00:59:28.444Z,981.82
2018-12-09T01:00:28.509Z,981.86
2018-12-09T01:01:28.380Z,981.70
2018-12-09T01:02:28.349Z,981.92
2018-12-09T01:03:28.319Z,982.01
2018-12-09T01:04:28.288Z,981.89
2018-12-09T01:05:28.261Z,981.76
2018-12-09T01:06:28.237Z,981.85
2018-12-09T01:07:28.203Z,981.75
2018-12-09T01:08:28.175Z,981.73
2018-12-09T01:09:28.135Z,981.74
2018-12-09T01:10:28.109Z,981.74
2018-12-09T01:11:28.091Z,981.79
2018-12-09T01:12:28.046Z,981.72
2018-12-09T01:13:28.022Z,981.78
2018-12-09T01:14:27.991Z,981.72
2018-12-09T01:15:27.955Z,982.00
2018-12-09T01:16:27.925Z,981.85
2018-12-09T01:17:27.894Z,982.00
2018-12-09T01:18:27.865Z,981.72
2018-12-09T01:19:27.836Z,982.10
2018-12-09T01:20:27.813Z,981.79
2018-12-09T01:21:27.775Z,981.88
2018-12-09T01:22:27.742Z,981.72
2018-12-09T01:23:27.749Z,981.98
2018-12-09T01:24:27.685Z,981.95
2018-12-09T01:25:27.651Z,981.93
2018-12-09T01:26:27.622Z,981.86
2018-12-09T01:27:27.593Z,981.86
2018-12-09T01:28:27.560Z,981.87
2018-12-09T01:29:27.533Z,981.92
2018-12-09T01:30:28.250Z,981.98
2018-12-09T01:31:27.472Z,981.91
2018-12-09T01:32:27.439Z,981.91
2018-12-09T01:33:27.409Z,982.02
2018-12-09T01:34:27.382Z,981.90
2018-12-09T01:35:27.347Z,982.14
2018-12-09T01:36:27.323Z,982.25
2018-12-09T01:37:27.288Z,982.21
2018-12-09T01:38:27.257Z,982.42
2018-12-09T01:39:27.244Z,982.00
2018-12-09T01:40:27.195Z,982.43
2018-12-09T01:41:27.165Z,982.40
2018-12-09T01:42:27.144Z,982.49
2018-12-09T01:43:27.104Z,982.50
2018-12-09T01:44:27.076Z,982.48
2018-12-09T01:45:27.065Z,982.51
2018-12-09T01:46:27.014Z,982.51
2018-12-09T01:47:26.982Z,982.48
2018-12-09T01:48:26.950Z,982.56
2018-12-09T01:49:26.921Z,982.54
2018-12-09T01:50:26.890Z,982.57
2018-12-09T01:51:26.860Z,982.46
2018-12-09T01:52:26.841Z,982.52
2018-12-09T01:53:26.797Z,982.59
2018-12-09T01:54:26.768Z,982.60
2018-12-09T01:55:26.737Z,982.53
2018-12-09T01:56:26.709Z,982.63
2018-12-09T01:57:26.675Z,982.68
2018-12-09T01:58:26.646Z,982.72
2018-12-09T01:59:26.620Z,982.69
2018-12-09T02:00:26.586Z,982.68
2018-12-09T02:01:26.552Z,982.78
2018-12-09T02:02:26.522Z,982.85
2018-12-09T02:03:26.493Z,982.86
2018-12-09T02:04:26.458Z,982.82
2018-12-09T02:05:26.428Z,982.78
2018-12-09T02:06:26.402Z,982.82
2018-12-09T02:07:26.367Z,982.80
2018-12-09T02:08:26.335Z,982.88
2018-12-09T02:09:26.305Z,982.82
2018-12-09T02:10:26.275Z,982.81
2018-12-09T02:11:26.245Z,982.86
2018-12-09T02:12:26.214Z,982.78
2018-12-09T02:13:26.181Z,982.83
2018-12-09T02:14:26.150Z,982.83
2018-12-09T02:15:26.121Z,982.92
2018-12-09T02:16:26.097Z,982.91
2018-12-09T02:17:26.057Z,982.93
2018-12-09T02:18:26.027Z,982.95
2018-12-09T02:19:25.996Z,982.91
2018-12-09T02:20:25.966Z,983.03
2018-12-09T02:21:25.934Z,982.97
2018-12-09T02:22:25.913Z,983.01
2018-12-09T02:23:25.873Z,983.03
2018-12-09T02:24:25.841Z,983.00
2018-12-09T02:25:25.816Z,983.06
2018-12-09T02:26:25.779Z,982.99
2018-12-09T02:27:25.748Z,983.01
2018-12-09T02:28:25.716Z,983.09
2018-12-09T02:29:25.686Z,982.99
2018-12-09T02:30:25.654Z,983.06
2018-12-09T02:31:25.625Z,983.13
2018-12-09T02:32:25.594Z,982.92
2018-12-09T02:33:25.562Z,983.17
2018-12-09T02:34:25.532Z,982.98
2018-12-09T02:35:25.507Z,982.97
2018-12-09T02:36:25.467Z,983.02
2018-12-09T02:37:25.437Z,983.15
2018-12-09T02:38:25.406Z,983.07
2018-12-09T02:39:25.375Z,983.20
2018-12-09T02:40:25.343Z,983.19
2018-12-09T02:41:25.352Z,983.25
2018-12-09T02:42:25.281Z,983.27
2018-12-09T02:43:25.251Z,983.34
2018-12-09T02:44:25.221Z,983.21
2018-12-09T02:45:25.189Z,983.27
2018-12-09T02:46:25.162Z,983.19
2018-12-09T02:47:25.128Z,983.31
2018-12-09T02:48:25.093Z,983.07
2018-12-09T02:49:25.063Z,983.24
2018-12-09T02:50:25.032Z,983.30
2018-12-09T02:51:25.002Z,983.41
2018-12-09T02:52:25.173Z,983.29
2018-12-09T02:53:24.939Z,983.24
2018-12-09T02:54:24.916Z,983.27
2018-12-09T02:55:24.876Z,983.26
2018-12-09T02:56:24.843Z,983.40
2018-12-09T02:57:24.814Z,983.48
2018-12-09T02:58:24.782Z,983.43
2018-12-09T02:59:24.953Z,983.54
2018-12-09T03:00:24.718Z,983.45
2018-12-09T03:01:24.689Z,983.43
2018-12-09T03:02:24.658Z,983.40
2018-12-09T03:03:24.629Z,983.49
2018-12-09T03:04:24.592Z,983.49
2018-12-09T03:05:24.563Z,983.39
2018-12-09T03:06:24.530Z,983.34
2018-12-09T03:07:24.502Z,983.51
2018-12-09T03:08:24.476Z,983.33
2018-12-09T03:09:24.437Z,983.43
2018-12-09T03:10:24.409Z,983.54
2018-12-09T03:11:24.376Z,983.64
2018-12-09T03:12:24.343Z,983.56
2018-12-09T03:13:24.313Z,983.51
2018-12-09T03:14:24.279Z,983.47
2018-12-09T03:15:24.252Z,983.56
2018-12-09T03:16:24.216Z,983.57
2018-12-09T03:17:24.188Z,983.54
2018-12-09T03:18:24.154Z,983.57
2018-12-09T03:19:24.122Z,983.67
2018-12-09T03:20:24.097Z,983.63
2018-12-09T03:21:24.059Z,983.68
2018-12-09T03:22:24.029Z,983.64
2018-12-09T03:23:24.000Z,983.71
2018-12-09T03:24:23.964Z,983.68
2018-12-09T03:25:23.936Z,983.75
2018-12-09T03:26:23.902Z,983.74
2018-12-09T03:27:23.870Z,983.75
2018-12-09T03:28:23.843Z,983.75
2018-12-09T03:29:23.808Z,983.68
2018-12-09T03:30:23.804Z,983.67
2018-12-09T03:31:23.746Z,983.72
2018-12-09T03:32:23.714Z,983.65
2018-12-09T03:33:23.680Z,983.75
2018-12-09T03:34:23.721Z,983.72
2018-12-09T03:35:23.618Z,983.77
2018-12-09T03:36:23.584Z,983.80
2018-12-09T03:37:23.556Z,983.76
2018-12-09T03:38:23.523Z,983.74
2018-12-09T03:39:23.494Z,983.78
2018-12-09T03:40:23.461Z,983.88
2018-12-09T03:41:23.430Z,983.90
2018-12-09T03:42:23.397Z,983.73
2018-12-09T03:43:23.368Z,983.72
2018-12-09T03:44:23.334Z,983.73
2018-12-09T03:45:23.303Z,983.72
2018-12-09T03:46:23.291Z,983.70
2018-12-09T03:47:23.243Z,983.76
2018-12-09T03:48:23.206Z,983.88
2018-12-09T03:49:23.175Z,983.70
2018-12-09T03:50:23.295Z,983.77
2018-12-09T03:51:23.112Z,983.81
2018-12-09T03:52:23.081Z,983.80
2018-12-09T03:53:23.053Z,983.79
2018-12-09T03:54:23.018Z,983.91
2018-12-09T03:55:22.986Z,983.87
2018-12-09T03:56:22.957Z,983.92
2018-12-09T03:57:22.921Z,983.92
2018-12-09T03:58:22.892Z,983.92
2018-12-09T03:59:22.956Z,983.72
2018-12-09T04:00:22.829Z,983.92
2018-12-09T04:01:22.797Z,983.90
2018-12-09T04:02:22.765Z,983.92
2018-12-09T04:03:22.734Z,983.88
2018-12-09T04:04:22.701Z,983.82
2018-12-09T04:05:22.670Z,983.95
2018-12-09T04:06:22.639Z,983.91
2018-12-09T04:07:22.630Z,983.90
2018-12-09T04:08:22.575Z,983.96
2018-12-09T04:09:22.545Z,983.94
2018-12-09T04:10:22.512Z,983.97
2018-12-09T04:11:22.483Z,984.04
2018-12-09T04:12:22.451Z,984.05
2018-12-09T04:13:22.418Z,983.83
2018-12-09T04:14:22.387Z,983.97
2018-12-09T04:15:22.363Z,983.98
2018-12-09T04:16:22.321Z,984.01
2018-12-09T04:17:22.291Z,984.00
2018-12-09T04:18:22.259Z,984.02
2018-12-09T04:19:22.229Z,984.08
2018-12-09T04:20:22.198Z,984.05
2018-12-09T04:21:22.168Z,984.18
2018-12-09T04:22:22.139Z,984.11
2018-12-09T04:23:22.105Z,984.13
2018-12-09T04:24:22.080Z,984.12
2018-12-09T04:25:22.040Z,984.12
2018-12-09T04:26:22.012Z,984.09
2018-12-09T04:27:21.979Z,984.11
2018-12-09T04:28:21.945Z,984.05
2018-12-09T04:29:21.914Z,984.08
2018-12-09T04:30:21.884Z,984.08
2018-12-09T04:31:21.851Z,984.09
2018-12-09T04:32:21.820Z,984.01
2018-12-09T04:33:21.788Z,984.12
2018-12-09T04:34:21.756Z,984.12
2018-12-09T04:35:21.726Z,984.09
2018-12-09T04:36:21.830Z,984.12
2018-12-09T04:37:21.663Z,984.18
2018-12-09T04:38:21.635Z,984.18
2018-12-09T04:39:21.603Z,984.17
2018-12-09T04:40:21.568Z,984.17
2018-12-09T04:41:21.543Z,984.15
2018-12-09T04:42:21.508Z,984.21
2018-12-09T04:43:21.475Z,984.15
2018-12-09T04:44:21.446Z,984.09
2018-12-09T04:45:21.413Z,984.04
2018-12-09T04:46:21.381Z,984.13
2018-12-09T04:47:21.351Z,984.22
2018-12-09T04:48:21.317Z,984.30
2018-12-09T04:49:21.293Z,984.23
2018-12-09T04:50:21.256Z,984.22
2018-12-09T04:51:21.223Z,984.31
2018-12-09T04:52:21.195Z,984.13
2018-12-09T04:53:21.165Z,984.25
2018-12-09T04:54:21.280Z,984.24
2018-12-09T04:55:21.101Z,984.18
2018-12-09T04:56:21.067Z,984.30
2018-12-09T04:57:21.035Z,984.27
2018-12-09T04:58:21.006Z,984.28
2018-12-09T04:59:20.975Z,984.18
2018-12-09T05:00:20.944Z,984.32
2018-12-09T05:01:20.912Z,984.30
2018-12-09T05:02:20.879Z,984.31
2018-12-09T05:03:20.849Z,984.35
2018-12-09T05:04:20.820Z,984.32
2018-12-09T05:05:20.785Z,984.19
2018-12-09T05:06:20.756Z,984.19
2018-12-09T05:07:20.724Z,984.26
2018-12-09T05:08:20.693Z,984.36
2018-12-09T05:09:20.661Z,984.32
2018-12-09T05:10:20.633Z,984.27
2018-12-09T05:11:20.601Z,984.26
2018-12-09T05:12:21.369Z,984.31
2018-12-09T05:13:20.540Z,984.41
2018-12-09T05:14:20.507Z,984.28
2018-12-09T05:15:20.472Z,984.37
2018-12-09T05:16:20.455Z,984.50
2018-12-09T05:17:20.411Z,984.42
2018-12-09T05:18:20.382Z,984.42
2018-12-09T05:19:20.348Z,984.44
2018-12-09T05:20:20.315Z,984.49
2018-12-09T05:21:20.285Z,984.32
2018-12-09T05:22:20.255Z,984.38
2018-12-09T05:23:20.224Z,984.56
2018-12-09T05:24:20.191Z,984.45
2018-12-09T05:25:20.161Z,984.36
2018-12-09T05:26:20.130Z,984.52
2018-12-09T05:27:20.104Z,984.51
2018-12-09T05:28:20.069Z,984.54
2018-12-09T05:29:20.036Z,984.60
2018-12-09T05:30:20.010Z,984.60
2018-12-09T05:31:19.975Z,984.71
2018-12-09T05:32:19.943Z,984.55
2018-12-09T05:33:19.926Z,984.50
2018-12-09T05:34:19.881Z,984.66
2018-12-09T05:35:19.851Z,984.59
2018-12-09T05:36:19.819Z,984.60
2018-12-09T05:37:19.789Z,984.51
2018-12-09T05:38:19.759Z,984.79
2018-12-09T05:39:19.727Z,984.70
2018-12-09T05:40:19.694Z,984.68
2018-12-09T05:41:19.670Z,984.70
2018-12-09T05:42:19.635Z,984.71
2018-12-09T05:43:19.605Z,984.71
2018-12-09T05:44:19.572Z,984.78
2018-12-09T05:45:19.539Z,984.79
2018-12-09T05:46:19.510Z,984.84
2018-12-09T05:47:19.480Z,984.81
2018-12-09T05:48:19.450Z,984.88
2018-12-09T05:49:19.500Z,984.64
2018-12-09T05:50:19.386Z,984.85
2018-12-09T05:51:19.354Z,984.84
2018-12-09T05:52:19.333Z,984.84
2018-12-09T05:53:19.291Z,984.85
2018-12-09T05:54:19.261Z,984.84
2018-12-09T05:55:19.231Z,984.91
2018-12-09T05:56:19.200Z,984.91
2018-12-09T05:57:19.179Z,984.97
2018-12-09T05:58:19.139Z,984.99
2018-12-09T05:59:19.110Z,985.08
2018-12-09T06:00:19.124Z,985.05
2018-12-09T06:01:19.046Z,985.09
2018-12-09T06:02:19.015Z,984.96
2018-12-09T06:03:18.984Z,985.07
2018-12-09T06:04:18.957Z,985.10
2018-12-09T06:05:18.924Z,985.19
2018-12-09T06:06:18.891Z,985.15
2018-12-09T06:07:18.859Z,985.14
2018-12-09T06:08:18.827Z,985.14
2018-12-09T06:09:18.799Z,985.08
2018-12-09T06:10:18.768Z,984.98
2018-12-09T06:11:18.735Z,985.02
2018-12-09T06:12:18.705Z,985.04
2018-12-09T06:13:18.678Z,985.15
2018-12-09T06:14:18.646Z,985.21
2018-12-09T06:15:18.617Z,985.35
2018-12-09T06:16:18.581Z,985.16
2018-12-09T06:17:18.550Z,985.21
2018-12-09T06:18:18.520Z,985.26
2018-12-09T06:19:18.489Z,985.20
2018-12-09T06:20:18.457Z,985.21
2018-12-09T06:21:18.426Z,985.24
2018-12-09T06:22:18.396Z,985.16
2018-12-09T06:23:18.364Z,985.20
2018-12-09T06:24:18.338Z,985.17
2018-12-09T06:25:18.305Z,985.26
2018-12-09T06:26:18.271Z,985.37
2018-12-09T06:27:18.248Z,985.40
2018-12-09T06:28:18.210Z,985.28
2018-12-09T06:29:18.178Z,985.38
2018-12-09T06:30:18.149Z,985.23
2018-12-09T06:31:18.123Z,985.38
2018-12-09T06:32:18.085Z,985.42
2018-12-09T06:33:18.063Z,985.37
2018-12-09T06:34:18.025Z,985.44
2018-12-09T06:35:18.145Z,985.41
2018-12-09T06:36:17.964Z,985.43
2018-12-09T06:37:17.931Z,985.27
2018-12-09T06:38:17.902Z,985.47
2018-12-09T06:39:17.870Z,985.38
2018-12-09T06:40:17.839Z,985.37
2018-12-09T06:41:17.810Z,985.40
2018-12-09T06:42:17.777Z,985.30
2018-12-09T06:43:17.749Z,985.48
2018-12-09T06:44:17.717Z,985.37
2018-12-09T06:45:17.690Z,985.31
2018-12-09T06:46:17.656Z,985.34
2018-12-09T06:47:17.628Z,985.50
2018-12-09T06:48:17.593Z,985.49
2018-12-09T06:49:17.563Z,985.54
2018-12-09T06:50:17.538Z,985.48
2018-12-09T06:51:17.502Z,985.56
2018-12-09T06:52:17.476Z,985.54
2018-12-09T06:53:17.940Z,985.67
2018-12-09T06:54:17.410Z,985.67
2018-12-09T06:55:17.380Z,985.66
2018-12-09T06:56:17.348Z,985.60
2018-12-09T06:57:17.318Z,985.63
2018-12-09T06:58:17.287Z,985.71
2018-12-09T06:59:17.257Z,985.60
2018-12-09T07:00:17.230Z,985.70
2018-12-09T07:01:17.198Z,985.59
2018-12-09T07:02:17.163Z,985.68
2018-12-09T07:03:17.142Z,985.67
2018-12-09T07:04:17.102Z,985.72
2018-12-09T07:05:17.071Z,985.79
2018-12-09T07:06:17.042Z,985.84
2018-12-09T07:07:17.010Z,985.74
2018-12-09T07:08:16.979Z,985.84
2018-12-09T07:09:16.948Z,985.84
2018-12-09T07:10:16.921Z,985.86
2018-12-09T07:11:16.891Z,985.81
2018-12-09T07:12:16.858Z,986.00
2018-12-09T07:13:16.828Z,986.01
2018-12-09T07:14:16.799Z,985.95
2018-12-09T07:15:16.765Z,985.83
2018-12-09T07:16:16.735Z,986.07
2018-12-09T07:17:16.704Z,986.03
2018-12-09T07:18:16.673Z,986.06
2018-12-09T07:19:16.644Z,986.09
2018-12-09T07:20:16.615Z,986.11
2018-12-09T07:21:16.581Z,986.10
2018-12-09T07:22:16.554Z,985.98
2018-12-09T07:23:16.524Z,985.99
2018-12-09T07:24:16.490Z,986.09
2018-12-09T07:25:16.460Z,986.08
2018-12-09T07:26:16.428Z,986.17
2018-12-09T07:27:16.399Z,986.06
2018-12-09T07:28:16.368Z,986.06
2018-12-09T07:29:16.336Z,986.08
2018-12-09T07:30:16.308Z,985.96
2018-12-09T07:31:16.280Z,986.17
2018-12-09T07:32:16.250Z,986.23
2018-12-09T07:33:16.215Z,986.16
2018-12-09T07:34:16.185Z,986.23
2018-12-09T07:35:16.154Z,986.33
2018-12-09T07:36:16.123Z,986.11
2018-12-09T07:37:16.093Z,986.22
2018-12-09T07:38:16.063Z,986.26
2018-12-09T07:39:16.032Z,986.21
2018-12-09T07:40:16.006Z,986.21
2018-12-09T07:41:15.971Z,986.06
2018-12-09T07:42:15.939Z,986.24
2018-12-09T07:43:15.911Z,986.20
2018-12-09T07:44:15.878Z,986.35
2018-12-09T07:45:15.846Z,986.42
2018-12-09T07:46:15.818Z,986.48
2018-12-09T07:47:15.787Z,986.56
2018-12-09T07:48:15.755Z,986.31
2018-12-09T07:49:15.727Z,986.42
2018-12-09T07:50:15.697Z,986.31
2018-12-09T07:51:15.665Z,986.47
2018-12-09T07:52:15.636Z,986.57
2018-12-09T07:53:15.604Z,986.56
2018-12-09T07:54:15.573Z,986.51
2018-12-09T07:55:15.542Z,986.54
2018-12-09T07:56:15.511Z,986.73
2018-12-09T07:57:15.481Z,986.61
2018-12-09T07:58:15.452Z,986.31
2018-12-09T07:59:15.421Z,986.57
2018-12-09T08:00:15.422Z,986.71
2018-12-09T08:01:15.358Z,986.67
2018-12-09T08:02:15.331Z,986.70
2018-12-09T08:03:15.306Z,986.77
2018-12-09T08:04:15.270Z,986.68
2018-12-09T08:05:15.237Z,986.71
2018-12-09T08:06:15.213Z,986.71
2018-12-09T08:07:15.178Z,986.59
2018-12-09T08:08:15.148Z,986.69
2018-12-09T08:09:15.118Z,986.73
2018-12-09T08:10:15.084Z,986.68
2018-12-09T08:11:15.060Z,986.82
2018-12-09T08:12:15.025Z,986.77
2018-12-09T08:13:14.994Z,986.72
2018-12-09T08:14:14.963Z,986.79
2018-12-09T08:15:14.932Z,986.99
2018-12-09T08:16:14.935Z,986.87
2018-12-09T08:17:14.872Z,986.91
2018-12-09T08:18:14.840Z,986.86
2018-12-09T08:19:14.817Z,986.88
2018-12-09T08:20:14.781Z,986.89
2018-12-09T08:21:14.750Z,986.89
2018-12-09T08:22:14.720Z,986.93
2018-12-09T08:23:14.690Z,986.92
2018-12-09T08:24:14.659Z,986.97
2018-12-09T08:25:14.638Z,987.14
2018-12-09T08:26:14.598Z,987.10
2018-12-09T08:27:14.567Z,987.05
2018-12-09T08:28:14.540Z,987.02
2018-12-09T08:29:14.506Z,987.06
2018-12-09T08:30:14.476Z,987.11
2018-12-09T08:31:14.445Z,987.10
2018-12-09T08:32:14.414Z,987.19
2018-12-09T08:33:14.385Z,987.11
2018-12-09T08:34:14.354Z,987.10
2018-12-09T08:35:15.327Z,987.21
2018-12-09T08:36:14.293Z,987.18
2018-12-09T08:37:14.263Z,987.29
2018-12-09T08:38:14.234Z,987.35
2018-12-09T08:39:14.208Z,987.30
2018-12-09T08:40:14.175Z,987.28
2018-12-09T08:41:14.143Z,987.35
2018-12-09T08:42:14.120Z,987.37
2018-12-09T08:43:14.083Z,987.36
2018-12-09T08:44:14.053Z,987.43
2018-12-09T08:45:14.024Z,987.44
2018-12-09T08:46:13.992Z,987.43
2018-12-09T08:47:13.961Z,987.46
2018-12-09T08:48:13.930Z,987.37
2018-12-09T08:49:13.903Z,987.45
2018-12-09T08:50:13.872Z,987.56
2018-12-09T08:51:13.842Z,987.41
2018-12-09T08:52:13.811Z,987.61
2018-12-09T08:53:13.930Z,987.52
2018-12-09T08:54:13.752Z,987.51
2018-12-09T08:55:13.721Z,987.47
2018-12-09T08:56:13.691Z,987.61
2018-12-09T08:57:13.670Z,987.65
2018-12-09T08:58:13.633Z,987.51
2018-12-09T08:59:13.607Z,987.59
2018-12-09T09:00:13.573Z,987.67
2018-12-09T09:01:13.542Z,987.60
2018-12-09T09:02:13.514Z,987.61
2018-12-09T09:03:13.483Z,987.57
2018-12-09T09:04:13.454Z,987.52
2018-12-09T09:05:13.425Z,987.51
2018-12-09T09:06:13.398Z,987.59
2018-12-09T09:07:13.365Z,987.53
2018-12-09T09:08:13.335Z,987.80
2018-12-09T09:09:13.310Z,987.82
2018-12-09T09:10:13.276Z,987.74
2018-12-09T09:11:13.250Z,987.63
2018-12-09T09:12:13.218Z,987.73
2018-12-09T09:13:13.191Z,987.73
2018-12-09T09:14:13.158Z,987.69
2018-12-09T09:15:13.128Z,987.73
2018-12-09T09:16:13.097Z,987.79
2018-12-09T09:17:13.069Z,987.82
2018-12-09T09:18:13.042Z,987.77
2018-12-09T09:19:13.012Z,987.80
2018-12-09T09:20:12.979Z,987.86
2018-12-09T09:21:12.948Z,987.89
2018-12-09T09:22:12.920Z,987.82
2018-12-09T09:23:12.889Z,987.84
2018-12-09T09:24:12.857Z,987.95
2018-12-09T09:25:12.831Z,987.88
2018-12-09T09:26:12.796Z,987.93
2018-12-09T09:27:12.771Z,987.78
2018-12-09T09:28:12.738Z,987.87
2018-12-09T09:29:12.708Z,988.00
2018-12-09T09:30:12.679Z,987.92
2018-12-09T09:31:12.647Z,988.03
2018-12-09T09:32:12.616Z,987.95
2018-12-09T09:33:12.586Z,987.74
2018-12-09T09:34:12.560Z,987.81
2018-12-09T09:35:12.525Z,987.89
2018-12-09T09:36:12.495Z,987.95
2018-12-09T09:37:12.465Z,987.86
2018-12-09T09:38:12.525Z,987.91
2018-12-09T09:39:12.404Z,987.90
2018-12-09T09:40:12.376Z,987.80
2018-12-09T09:41:12.344Z,987.98
2018-12-09T09:42:12.315Z,987.88
2018-12-09T09:43:12.284Z,987.92
2018-12-09T09:44:12.260Z,987.97
2018-12-09T09:45:12.222Z,987.88
2018-12-09T09:46:12.198Z,987.95
2018-12-09T09:47:12.162Z,988.03
2018-12-09T09:48:12.133Z,988.15
2018-12-09T09:49:12.105Z,988.23
2018-12-09T09:50:12.294Z,988.23
2018-12-09T09:51:12.049Z,988.02
2018-12-09T09:52:12.011Z,988.05
2018-12-09T09:53:11.983Z,988.10
2018-12-09T09:54:11.954Z,987.96
2018-12-09T09:55:11.923Z,988.08
2018-12-09T09:56:11.893Z,988.00
2018-12-09T09:57:11.865Z,987.90
2018-12-09T09:58:11.834Z,988.16
2018-12-09T09:59:11.813Z,987.97
2018-12-09T10:00:11.775Z,988.16
2018-12-09T10:01:11.751Z,988.04
2018-12-09T10:02:11.716Z,987.81
2018-12-09T10:03:11.687Z,988.12
2018-12-09T10:04:11.655Z,988.11
2018-12-09T10:05:11.627Z,988.03
2018-12-09T10:06:11.598Z,987.94
2018-12-09T10:07:11.572Z,987.82
2018-12-09T10:08:11.537Z,988.11
2018-12-09T10:09:11.511Z,988.06
2018-12-09T10:10:11.526Z,988.18
2018-12-09T10:11:11.450Z,988.17
2018-12-09T10:12:11.420Z,988.04
2018-12-09T10:13:11.389Z,987.99
2018-12-09T10:14:11.361Z,988.29
2018-12-09T10:15:11.334Z,988.26
2018-12-09T10:16:11.305Z,988.23
2018-12-09T10:17:11.275Z,988.03
2018-12-09T10:18:11.249Z,988.07
2018-12-09T10:19:11.213Z,988.21
2018-12-09T10:20:11.185Z,988.20
2018-12-09T10:21:11.154Z,988.12
2018-12-09T10:22:11.124Z,988.25
2018-12-09T10:23:11.094Z,988.18
2018-12-09T10:24:11.065Z,988.13
2018-12-09T10:25:11.037Z,988.12
2018-12-09T10:26:11.006Z,988.30
2018-12-09T10:27:10.981Z,988.33
2018-12-09T10:28:10.946Z,988.22
2018-12-09T10:29:10.920Z,988.26
2018-12-09T10:30:10.887Z,988.14
2018-12-09T10:31:10.856Z,988.23
2018-12-09T10:32:10.830Z,988.29
2018-12-09T10:33:10.954Z,988.26
2018-12-09T10:34:10.767Z,988.08
2018-12-09T10:35:10.747Z,988.31
2018-12-09T10:36:10.707Z,988.31
2018-12-09T10:37:10.679Z,988.26
2018-12-09T10:38:10.649Z,988.50
2018-12-09T10:39:10.626Z,988.38
2018-12-09T10:40:10.588Z,988.21
2018-12-09T10:41:10.560Z,988.27
2018-12-09T10:42:10.529Z,988.30
2018-12-09T10:43:10.501Z,988.25
2018-12-09T10:44:10.473Z,988.15
2018-12-09T10:45:10.439Z,988.30
2018-12-09T10:46:10.411Z,988.42
2018-12-09T10:47:10.381Z,988.31
2018-12-09T10:48:10.351Z,988.45
2018-12-09T10:49:10.329Z,988.35
2018-12-09T10:50:10.304Z,988.21
2018-12-09T10:51:10.263Z,988.30
2018-12-09T10:52:10.245Z,988.47
2018-12-09T10:53:10.201Z,988.36
2018-12-09T10:54:10.173Z,988.44
2018-12-09T10:55:10.142Z,988.39
2018-12-09T10:56:10.112Z,988.47
2018-12-09T10:57:10.084Z,988.39
2018-12-09T10:58:10.053Z,988.62
2018-12-09T10:59:10.024Z,988.54
2018-12-09T11:00:09.993Z,988.22
2018-12-09T11:01:09.964Z,988.43
2018-12-09T11:02:09.934Z,988.55
2018-12-09T11:03:09.904Z,988.46
2018-12-09T11:04:09.875Z,988.46
2018-12-09T11:05:09.845Z,988.34
2018-12-09T11:06:09.816Z,988.88
2018-12-09T11:07:09.790Z,988.00
2018-12-09T11:08:09.758Z,988.62
2018-12-09T11:09:09.727Z,988.66
2018-12-09T11:10:09.698Z,988.75
2018-12-09T11:11:09.667Z,988.70
2018-12-09T11:12:09.636Z,988.56
2018-12-09T11:13:09.608Z,988.81
2018-12-09T11:14:09.579Z,988.79
2018-12-09T11:15:09.548Z,988.71
2018-12-09T11:16:09.518Z,988.69
2018-12-09T11:17:09.489Z,988.65
2018-12-09T11:18:09.458Z,988.71
2018-12-09T11:19:09.430Z,988.87
2018-12-09T11:20:09.399Z,988.81
2018-12-09T11:21:09.369Z,988.91
2018-12-09T11:22:09.340Z,988.95
2018-12-09T11:23:09.311Z,988.93
2018-12-09T11:24:09.280Z,989.03
2018-12-09T11:25:09.252Z,989.00
2018-12-09T11:26:09.220Z,989.01
2018-12-09T11:27:09.197Z,989.10
2018-12-09T11:28:09.161Z,989.00
2018-12-09T11:29:09.134Z,989.11
2018-12-09T11:30:09.102Z,988.78
2018-12-09T11:31:09.074Z,989.39
2018-12-09T11:32:09.042Z,989.05
2018-12-09T11:33:09.013Z,989.11
2018-12-09T11:34:08.982Z,989.01
2018-12-09T11:35:08.957Z,988.97
2018-12-09T11:36:08.923Z,989.10
2018-12-09T11:37:08.892Z,989.21
2018-12-09T11:38:08.864Z,989.16
2018-12-09T11:39:09.421Z,989.17
2018-12-09T11:40:08.802Z,988.94
2018-12-09T11:41:08.774Z,989.14
2018-12-09T11:42:08.741Z,989.18
2018-12-09T11:43:08.713Z,989.05
2018-12-09T11:44:08.681Z,989.00
2018-12-09T11:45:08.651Z,988.98
2018-12-09T11:46:08.621Z,989.06
2018-12-09T11:47:08.592Z,989.03
2018-12-09T11:48:08.558Z,989.20
2018-12-09T11:49:08.530Z,989.48
2018-12-09T11:50:08.502Z,989.13
2018-12-09T11:51:08.470Z,989.09
2018-12-09T11:52:08.439Z,989.12
2018-12-09T11:53:08.412Z,989.08
2018-12-09T11:54:08.379Z,989.13
2018-12-09T11:55:08.347Z,989.07
2018-12-09T11:56:08.316Z,989.08
2018-12-09T11:57:08.288Z,989.07
2018-12-09T11:58:08.257Z,989.05
2018-12-09T11:59:08.227Z,989.09
2018-12-09T12:00:08.196Z,989.05
2018-12-09T12:01:08.164Z,989.16
2018-12-09T12:02:08.135Z,989.29
2018-12-09T12:03:08.104Z,989.22
2018-12-09T12:04:08.078Z,989.26
2018-12-09T12:05:08.043Z,989.34
2018-12-09T12:06:08.031Z,989.25
2018-12-09T12:07:07.983Z,989.27
2018-12-09T12:08:07.955Z,989.22
2018-12-09T12:09:07.922Z,989.21
2018-12-09T12:10:07.895Z,989.07
2018-12-09T12:11:07.865Z,989.10
2018-12-09T12:12:07.847Z,989.07
2018-12-09T12:13:07.802Z,989.27
2018-12-09T12:14:07.772Z,989.17
2018-12-09T12:15:07.762Z,989.00
2018-12-09T12:16:07.713Z,989.13
2018-12-09T12:17:07.680Z,989.22
2018-12-09T12:18:07.651Z,989.07
2018-12-09T12:19:07.620Z,989.14
2018-12-09T12:20:07.589Z,989.13
2018-12-09T12:21:07.559Z,989.11
2018-12-09T12:22:07.529Z,989.29
2018-12-09T12:23:07.499Z,989.26
2018-12-09T12:24:07.470Z,989.16
2018-12-09T12:25:07.439Z,989.19
2018-12-09T12:26:07.409Z,989.20
2018-12-09T12:27:07.376Z,989.23
2018-12-09T12:28:07.350Z,989.25